首页
METAR-TAF:

METAR-TAF

机场 :

内利斯空军基地

Nellis, 内华达州, 美国

纬度: 36-14N, 经度: 115-02W, 海拔: 570米

当前天气观测

该预报发布于32分钟前的03:55 UTC
风速7节,风向南转西南
温度 29°C
湿度 5%
气压 1006 hPa
能見度: 16.1公里
天空无云

METAR: KLSV 190355Z AUTO 21007KT 10SM CLR 29/M14 A2971 RMK AO2 SLP036 T02901145 $

时间: 21:27 (04:27 UTC)

预报

该预报发布于5小时和27分钟前的23:00 UTC
预报有效从18日的 23点(UTC)到 20日的 05点(UTC)
风速12节,风向南转西南,有时为18节阵风
能见度10公里或以上
少量云层高于14000英尺
多云层高于20000英尺
成为
从 19日的 01点(UTC)到 19日的 02点(UTC)
风速15节,风向西南,有时为25节阵风
能见度10公里或以上
散云层高于17000英尺
成为
从 19日的 07点(UTC)到 19日的 08点(UTC)
风速9节,风向
能见度10公里或以上
少量云层高于17000英尺
成为
从 19日的 21点(UTC)到 19日的 22点(UTC)
风速15节,风向南转西南,有时为25节阵风
能见度10公里或以上
少量云层高于15000英尺

TAF: KLSV 182300Z 1823/2005 21012G18KT 9999 FEW140 BKN200 QNH2969INS BECMG 1901/1902 22015G25KT 9999 SCT170 520009 QNH2971INS BECMG 1907/1908 17009KT 9999 FEW170 QNH2976INS BECMG 1921/1922 21015G25KT 9999 FEW150 520009 QNH2967INS TX35/1922Z TN21/1912Z

超过4000个机场的气象观测和天气预报(METAR&TAF报告)。

可查询的气象台以黄色和红色小点在地图上表示。

将鼠标移到小点上方,可查看气象台名称。

然后点击查看天气观测和预报。

如需切换地图:点击带黑十字的绿色按钮放大地图;点击带横线的绿色按钮缩小地图;或者点击绿色箭头查看邻近地区的地图。


METAR-TAF: